createdAt,value
2019-06-08T00:00:08.942Z,62.38
2019-06-08T00:01:08.953Z,62.29
2019-06-08T00:02:08.918Z,62.08
2019-06-08T00:03:08.905Z,62.08
2019-06-08T00:04:08.903Z,62.29
2019-06-08T00:05:08.887Z,62.29
2019-06-08T00:06:08.914Z,62.38
2019-06-08T00:07:08.860Z,62.38
2019-06-08T00:08:08.855Z,62.38
2019-06-08T00:09:08.839Z,62.29
2019-06-08T00:10:08.828Z,62.08
2019-06-08T00:11:08.843Z,62.29
2019-06-08T00:12:08.807Z,61.98
2019-06-08T00:13:08.795Z,62.08
2019-06-08T00:14:08.787Z,61.47
2019-06-08T00:15:08.772Z,61.27
2019-06-08T00:16:08.764Z,61.55
2019-06-08T00:17:08.762Z,61.68
2019-06-08T00:18:08.740Z,61.58
2019-06-08T00:19:08.741Z,61.24
2019-06-08T00:20:08.719Z,61.44
2019-06-08T00:21:08.724Z,61.24
2019-06-08T00:22:08.694Z,61.14
2019-06-08T00:23:08.679Z,61.24
2019-06-08T00:24:08.670Z,61.44
2019-06-08T00:25:08.660Z,61.14
2019-06-08T00:26:08.654Z,61.44
2019-06-08T00:27:08.652Z,61.55
2019-06-08T00:28:08.623Z,61.14
2019-06-08T00:29:08.621Z,61.14
2019-06-08T00:30:08.628Z,61.44
2019-06-08T00:31:08.590Z,61.44
2019-06-08T00:32:08.611Z,61.35
2019-06-08T00:33:08.569Z,61.35
2019-06-08T00:34:08.565Z,61.35
2019-06-08T00:35:08.546Z,61.24
2019-06-08T00:36:08.541Z,61.04
2019-06-08T00:37:08.539Z,61.35
2019-06-08T00:38:08.511Z,61.24
2019-06-08T00:39:08.503Z,60.84
2019-06-08T00:40:08.494Z,61.04
2019-06-08T00:41:08.482Z,61.24
2019-06-08T00:42:08.498Z,61.14
2019-06-08T00:43:08.457Z,60.94
2019-06-08T00:44:08.450Z,60.94
2019-06-08T00:45:08.434Z,60.94
2019-06-08T00:46:08.420Z,60.43
2019-06-08T00:47:08.417Z,60.74
2019-06-08T00:48:08.416Z,60.53
2019-06-08T00:49:08.389Z,60.33
2019-06-08T00:50:08.380Z,60.23
2019-06-08T00:51:08.366Z,59.92
2019-06-08T00:52:08.354Z,59.72
2019-06-08T00:53:08.370Z,59.22
2019-06-08T00:54:08.335Z,59.52
2019-06-08T00:55:08.329Z,59.72
2019-06-08T00:56:08.312Z,59.52
2019-06-08T00:57:08.304Z,58.92
2019-06-08T00:58:08.307Z,59.12
2019-06-08T00:59:08.282Z,59.52
2019-06-08T01:00:10.963Z,59.52
2019-06-08T01:01:08.255Z,59.52
2019-06-08T01:02:08.247Z,59.01
2019-06-08T01:03:08.258Z,58.71
2019-06-08T01:04:08.233Z,59.12
2019-06-08T01:05:08.218Z,58.71
2019-06-08T01:06:08.210Z,59.32
2019-06-08T01:07:08.187Z,59.42
2019-06-08T01:08:08.227Z,59.92
2019-06-08T01:09:08.426Z,59.42
2019-06-08T01:10:08.154Z,59.32
2019-06-08T01:11:08.162Z,58.92
2019-06-08T01:12:08.129Z,59.45
2019-06-08T01:13:08.119Z,59.14
2019-06-08T01:14:08.131Z,59.34
2019-06-08T01:15:08.454Z,58.94
2019-06-08T01:16:08.092Z,58.84
2019-06-08T01:17:08.076Z,59.34
2019-06-08T01:18:08.079Z,59.45
2019-06-08T01:19:08.054Z,59.14
2019-06-08T01:20:08.066Z,59.55
2019-06-08T01:21:08.035Z,59.65
2019-06-08T01:22:08.020Z,59.65
2019-06-08T01:23:08.009Z,59.85
2019-06-08T01:24:08.012Z,59.65
2019-06-08T01:25:07.985Z,60.06
2019-06-08T01:26:07.974Z,60.57
2019-06-08T01:27:07.966Z,59.75
2019-06-08T01:28:07.948Z,60.16
2019-06-08T01:29:07.965Z,60.46
2019-06-08T01:30:07.930Z,61.17
2019-06-08T01:31:07.922Z,61.07
2019-06-08T01:32:07.914Z,60.86
2019-06-08T01:33:07.896Z,61.51
2019-06-08T01:34:07.882Z,61.80
2019-06-08T01:35:07.916Z,61.71
2019-06-08T01:36:07.864Z,61.51
2019-06-08T01:37:07.853Z,61.71
2019-06-08T01:38:07.840Z,61.80
2019-06-08T01:39:07.828Z,62.11
2019-06-08T01:40:07.814Z,61.60
2019-06-08T01:41:07.833Z,61.80
2019-06-08T01:42:07.802Z,61.80
2019-06-08T01:43:07.785Z,62.01
2019-06-08T01:44:07.781Z,62.01
2019-06-08T01:45:07.773Z,61.80
2019-06-08T01:46:07.754Z,62.01
2019-06-08T01:47:07.738Z,62.21
2019-06-08T01:48:19.279Z,62.41
2019-06-08T01:49:08.723Z,62.21
2019-06-08T01:50:07.719Z,62.31
2019-06-08T01:51:07.695Z,62.21
2019-06-08T01:52:07.682Z,62.01
2019-06-08T01:53:07.675Z,61.91
2019-06-08T01:54:07.661Z,62.11
2019-06-08T01:55:07.670Z,62.31
2019-06-08T01:56:07.641Z,62.62
2019-06-08T01:57:07.626Z,62.21
2019-06-08T01:58:07.618Z,62.41
2019-06-08T01:59:07.606Z,62.45
2019-06-08T02:00:29.385Z,62.95
2019-06-08T02:01:08.596Z,61.60
2019-06-08T02:02:07.577Z,61.53
2019-06-08T02:03:07.567Z,61.20
2019-06-08T02:04:07.551Z,60.69
2019-06-08T02:05:07.555Z,60.69
2019-06-08T02:06:07.528Z,61.20
2019-06-08T02:07:07.518Z,60.69
2019-06-08T02:08:07.506Z,61.40
2019-06-08T02:09:07.492Z,61.10
2019-06-08T02:10:07.516Z,60.72
2019-06-08T02:11:07.469Z,60.52
2019-06-08T02:12:07.461Z,60.49
2019-06-08T02:13:08.750Z,59.70
2019-06-08T02:14:07.441Z,60.52
2019-06-08T02:15:07.433Z,60.01
2019-06-08T02:16:07.424Z,59.41
2019-06-08T02:17:07.410Z,59.07
2019-06-08T02:18:07.394Z,58.69
2019-06-08T02:19:07.379Z,59.30
2019-06-08T02:20:07.368Z,58.49
2019-06-08T02:21:07.393Z,58.59
2019-06-08T02:22:07.361Z,58.69
2019-06-08T02:23:07.342Z,59.41
2019-06-08T02:24:07.324Z,58.09
2019-06-08T02:25:07.319Z,58.59
2019-06-08T02:26:07.317Z,57.48
2019-06-08T02:27:07.292Z,57.55
2019-06-08T02:28:07.288Z,58.39
2019-06-08T02:29:07.290Z,57.98
2019-06-08T02:30:07.272Z,58.39
2019-06-08T02:31:07.274Z,58.59
2019-06-08T02:32:07.244Z,59.41
2019-06-08T02:33:07.226Z,58.69
2019-06-08T02:34:07.225Z,59.41
2019-06-08T02:35:07.203Z,59.10
2019-06-08T02:36:07.198Z,59.00
2019-06-08T02:37:07.229Z,59.41
2019-06-08T02:38:07.171Z,58.69
2019-06-08T02:39:07.161Z,58.18
2019-06-08T02:40:07.168Z,57.37
2019-06-08T02:41:07.141Z,57.48
2019-06-08T02:42:07.124Z,57.55
2019-06-08T02:43:07.130Z,57.86
2019-06-08T02:44:07.103Z,57.35
2019-06-08T02:45:07.091Z,57.24
2019-06-08T02:46:07.079Z,57.75
2019-06-08T02:47:07.077Z,57.35
2019-06-08T02:48:07.079Z,57.15
2019-06-08T02:49:07.085Z,57.15
2019-06-08T02:50:07.034Z,57.65
2019-06-08T02:51:07.024Z,57.24
2019-06-08T02:52:07.012Z,57.35
2019-06-08T02:53:07.022Z,57.15
2019-06-08T02:54:06.988Z,57.48
2019-06-08T02:55:07.000Z,57.55
2019-06-08T02:56:06.965Z,57.55
2019-06-08T02:57:06.955Z,57.86
2019-06-08T02:58:06.950Z,57.55
2019-06-08T02:59:06.938Z,57.35
2019-06-08T03:00:06.919Z,57.65
2019-06-08T03:01:06.926Z,57.75
2019-06-08T03:02:06.910Z,58.16
2019-06-08T03:03:06.886Z,57.45
2019-06-08T03:04:06.891Z,57.55
2019-06-08T03:05:06.872Z,57.45
2019-06-08T03:06:06.853Z,57.88
2019-06-08T03:07:06.845Z,57.86
2019-06-08T03:08:06.929Z,57.86
2019-06-08T03:09:06.840Z,57.86
2019-06-08T03:10:06.822Z,57.75
2019-06-08T03:11:06.800Z,57.75
2019-06-08T03:12:06.794Z,57.24
2019-06-08T03:13:06.788Z,57.65
2019-06-08T03:14:06.866Z,57.35
2019-06-08T03:15:06.758Z,57.45
2019-06-08T03:16:06.757Z,57.45
2019-06-08T03:17:06.734Z,57.15
2019-06-08T03:18:06.722Z,57.24
2019-06-08T03:19:20.666Z,57.24
2019-06-08T03:20:07.720Z,57.55
2019-06-08T03:21:06.691Z,57.75
2019-06-08T03:22:10.671Z,57.24
2019-06-08T03:23:06.665Z,57.24
2019-06-08T03:24:06.655Z,57.35
2019-06-08T03:25:06.663Z,57.24
2019-06-08T03:26:06.633Z,57.24
2019-06-08T03:27:06.647Z,57.55
2019-06-08T03:28:06.614Z,55.63
2019-06-08T03:29:06.604Z,56.54
2019-06-08T03:30:16.681Z,55.73
2019-06-08T03:31:07.575Z,56.03
2019-06-08T03:32:06.588Z,56.44
2019-06-08T03:33:06.577Z,55.73
2019-06-08T03:34:06.543Z,55.83
2019-06-08T03:35:06.548Z,55.93
2019-06-08T03:36:06.530Z,56.03
2019-06-08T03:37:06.516Z,56.03
2019-06-08T03:38:06.522Z,56.03
2019-06-08T03:39:06.519Z,55.73
2019-06-08T03:40:06.479Z,55.73
2019-06-08T03:41:06.470Z,55.73
2019-06-08T03:42:06.469Z,55.83
2019-06-08T03:43:06.440Z,55.80
2019-06-08T03:44:06.435Z,55.93
2019-06-08T03:45:06.422Z,55.32
2019-06-08T03:46:06.426Z,55.32
2019-06-08T03:47:06.406Z,54.79
2019-06-08T03:48:06.398Z,54.79
2019-06-08T03:49:06.381Z,55.19
2019-06-08T03:50:06.386Z,54.18
2019-06-08T03:51:06.379Z,55.02
2019-06-08T03:52:06.381Z,54.21
2019-06-08T03:53:06.338Z,54.38
2019-06-08T03:54:06.330Z,54.38
2019-06-08T03:55:06.312Z,54.69
2019-06-08T03:56:06.301Z,54.49
2019-06-08T03:57:06.315Z,54.18
2019-06-08T03:58:06.297Z,55.30
2019-06-08T03:59:06.267Z,54.69
2019-06-08T04:00:13.039Z,54.28
2019-06-08T04:01:07.240Z,54.89
2019-06-08T04:02:06.302Z,55.40
2019-06-08T04:03:06.219Z,55.10
2019-06-08T04:04:06.233Z,55.30
2019-06-08T04:05:06.207Z,54.59
2019-06-08T04:06:06.197Z,55.19
2019-06-08T04:07:06.175Z,55.40
2019-06-08T04:08:06.900Z,54.89
2019-06-08T04:09:06.152Z,54.97
2019-06-08T04:10:06.165Z,54.79
2019-06-08T04:11:06.135Z,55.40
2019-06-08T04:12:06.149Z,54.97
2019-06-08T04:13:06.112Z,54.76
2019-06-08T04:14:06.103Z,54.89
2019-06-08T04:15:06.086Z,55.30
2019-06-08T04:16:06.079Z,54.89
2019-06-08T04:17:06.066Z,54.79
2019-06-08T04:18:06.071Z,55.10
2019-06-08T04:19:06.057Z,54.79
2019-06-08T04:20:11.311Z,54.69
2019-06-08T04:21:07.018Z,54.89
2019-06-08T04:22:06.009Z,55.10
2019-06-08T04:23:06.015Z,54.69
2019-06-08T04:24:05.985Z,55.10
2019-06-08T04:25:05.974Z,54.59
2019-06-08T04:26:05.970Z,55.10
2019-06-08T04:27:05.956Z,55.40
2019-06-08T04:28:05.939Z,55.10
2019-06-08T04:29:05.947Z,56.01
2019-06-08T04:30:05.935Z,55.50
2019-06-08T04:31:05.908Z,54.89
2019-06-08T04:32:05.904Z,55.43
2019-06-08T04:33:05.885Z,55.63
2019-06-08T04:34:05.887Z,56.23
2019-06-08T04:35:05.863Z,55.52
2019-06-08T04:36:05.853Z,55.73
2019-06-08T04:37:05.840Z,55.63
2019-06-08T04:38:05.833Z,55.43
2019-06-08T04:39:05.832Z,55.73
2019-06-08T04:40:05.821Z,55.43
2019-06-08T04:41:05.796Z,55.52
2019-06-08T04:42:05.787Z,55.73
2019-06-08T04:43:05.772Z,55.73
2019-06-08T04:44:05.773Z,55.52
2019-06-08T04:45:05.794Z,56.03
2019-06-08T04:46:05.736Z,55.93
2019-06-08T04:47:05.726Z,55.52
2019-06-08T04:48:09.519Z,54.82
2019-06-08T04:49:05.704Z,55.12
2019-06-08T04:50:21.916Z,54.71
2019-06-08T04:51:06.678Z,54.71
2019-06-08T04:52:05.675Z,55.22
2019-06-08T04:53:05.664Z,54.71
2019-06-08T04:54:05.670Z,54.11
2019-06-08T04:55:05.653Z,54.92
2019-06-08T04:56:05.631Z,54.41
2019-06-08T04:57:05.618Z,54.31
2019-06-08T04:58:05.605Z,55.02
2019-06-08T04:59:05.611Z,54.74
2019-06-08T05:00:11.685Z,55.73
2019-06-08T05:01:06.576Z,54.51
2019-06-08T05:02:05.558Z,54.33
2019-06-08T05:03:05.587Z,54.61
2019-06-08T05:04:05.552Z,55.04
2019-06-08T05:05:05.531Z,54.94
2019-06-08T05:06:05.532Z,55.15
2019-06-08T05:07:05.504Z,54.53
2019-06-08T05:08:05.491Z,54.53
2019-06-08T05:09:05.502Z,54.84
2019-06-08T05:10:05.472Z,54.84
2019-06-08T05:11:05.463Z,54.84
2019-06-08T05:12:05.448Z,54.64
2019-06-08T05:13:05.435Z,54.84
2019-06-08T05:14:05.424Z,55.04
2019-06-08T05:15:05.431Z,55.25
2019-06-08T05:16:05.405Z,54.24
2019-06-08T05:17:05.397Z,54.74
2019-06-08T05:18:05.386Z,54.84
2019-06-08T05:19:05.386Z,54.44
2019-06-08T05:20:05.370Z,55.04
2019-06-08T05:21:05.349Z,55.04
2019-06-08T05:22:05.337Z,54.84
2019-06-08T05:23:05.322Z,55.45
2019-06-08T05:24:05.313Z,54.94
2019-06-08T05:25:05.321Z,54.74
2019-06-08T05:26:05.292Z,54.84
2019-06-08T05:27:05.282Z,55.35
2019-06-08T05:28:05.268Z,55.25
2019-06-08T05:29:05.263Z,55.55
2019-06-08T05:30:08.858Z,54.94
2019-06-08T05:31:05.266Z,54.84
2019-06-08T05:32:05.223Z,55.55
2019-06-08T05:33:05.215Z,54.84
2019-06-08T05:34:05.205Z,54.74
2019-06-08T05:35:05.187Z,54.94
2019-06-08T05:36:05.182Z,55.55
2019-06-08T05:37:05.198Z,55.76
2019-06-08T05:38:05.155Z,54.94
2019-06-08T05:39:05.166Z,55.55
2019-06-08T05:40:05.138Z,55.37
2019-06-08T05:41:05.134Z,55.55
2019-06-08T05:42:05.110Z,55.76
2019-06-08T05:43:05.117Z,55.55
2019-06-08T05:44:05.087Z,55.65
2019-06-08T05:45:05.101Z,55.96
2019-06-08T05:46:05.079Z,56.05
2019-06-08T05:47:05.062Z,56.05
2019-06-08T05:48:05.042Z,55.96
2019-06-08T05:49:05.032Z,55.45
2019-06-08T05:50:05.025Z,55.96
2019-06-08T05:51:05.028Z,55.96
2019-06-08T05:52:05.009Z,55.45
2019-06-08T05:53:04.995Z,55.96
2019-06-08T05:54:04.981Z,55.65
2019-06-08T05:55:04.963Z,55.45
2019-06-08T05:56:04.966Z,56.05
2019-06-08T05:57:04.944Z,55.85
2019-06-08T05:58:04.935Z,55.65
2019-06-08T05:59:04.931Z,55.55
2019-06-08T06:00:09.058Z,56.05
2019-06-08T06:01:04.911Z,55.96
2019-06-08T06:02:04.887Z,56.05
2019-06-08T06:03:04.880Z,55.76
2019-06-08T06:04:04.864Z,56.26
2019-06-08T06:05:04.866Z,55.85
2019-06-08T06:06:04.859Z,55.65
2019-06-08T06:07:04.841Z,55.85
2019-06-08T06:08:17.959Z,55.96
2019-06-08T06:09:05.807Z,55.96
2019-06-08T06:10:04.798Z,55.96
2019-06-08T06:11:04.831Z,55.96
2019-06-08T06:12:04.775Z,55.65
2019-06-08T06:13:04.766Z,55.85
2019-06-08T06:14:04.757Z,55.85
2019-06-08T06:15:04.743Z,55.76
2019-06-08T06:16:04.729Z,55.55
2019-06-08T06:17:04.740Z,55.45
2019-06-08T06:18:04.708Z,55.04
2019-06-08T06:19:04.697Z,55.45
2019-06-08T06:20:04.685Z,55.76
2019-06-08T06:21:10.768Z,55.76
2019-06-08T06:22:05.669Z,54.84
2019-06-08T06:23:04.652Z,55.65
2019-06-08T06:24:04.644Z,55.55
2019-06-08T06:25:04.641Z,55.25
2019-06-08T06:26:04.616Z,55.55
2019-06-08T06:27:04.606Z,54.33
2019-06-08T06:28:06.422Z,55.35
2019-06-08T06:29:04.591Z,55.35
2019-06-08T06:30:04.589Z,54.84
2019-06-08T06:31:04.568Z,55.68
2019-06-08T06:32:04.567Z,55.15
2019-06-08T06:33:04.548Z,55.65
2019-06-08T06:34:04.531Z,55.25
2019-06-08T06:35:04.539Z,55.55
2019-06-08T06:36:04.539Z,55.35
2019-06-08T06:37:04.493Z,55.76
2019-06-08T06:38:04.483Z,55.45
2019-06-08T06:39:04.480Z,55.96
2019-06-08T06:40:04.462Z,55.52
2019-06-08T06:41:04.457Z,54.92
2019-06-08T06:42:04.455Z,55.32
2019-06-08T06:43:04.446Z,54.92
2019-06-08T06:44:04.421Z,54.61
2019-06-08T06:45:04.406Z,53.58
2019-06-08T06:46:04.403Z,53.88
2019-06-08T06:47:04.382Z,54.28
2019-06-08T06:48:04.401Z,53.98
2019-06-08T06:49:04.360Z,53.67
2019-06-08T06:50:04.351Z,53.17
2019-06-08T06:51:04.345Z,53.07
2019-06-08T06:52:04.330Z,53.07
2019-06-08T06:53:04.320Z,54.08
2019-06-08T06:54:04.323Z,53.47
2019-06-08T06:55:04.297Z,53.17
2019-06-08T06:56:04.288Z,54.08
2019-06-08T06:57:04.302Z,53.30
2019-06-08T06:58:04.270Z,53.88
2019-06-08T06:59:04.281Z,53.19
2019-06-08T07:00:04.244Z,53.98
2019-06-08T07:01:04.236Z,54.28
2019-06-08T07:02:04.225Z,53.37
2019-06-08T07:03:04.210Z,53.27
2019-06-08T07:04:04.208Z,52.86
2019-06-08T07:05:04.194Z,53.27
2019-06-08T07:06:04.185Z,53.47
2019-06-08T07:07:04.182Z,53.27
2019-06-08T07:08:04.156Z,52.76
2019-06-08T07:09:04.180Z,53.98
2019-06-08T07:10:04.143Z,53.47
2019-06-08T07:11:04.123Z,53.47
2019-06-08T07:12:04.111Z,53.37
2019-06-08T07:13:04.102Z,53.58
2019-06-08T07:14:04.090Z,53.65
2019-06-08T07:15:04.096Z,53.34
2019-06-08T07:16:17.744Z,53.25
2019-06-08T07:17:05.056Z,53.34
2019-06-08T07:18:04.045Z,53.05
2019-06-08T07:19:04.041Z,53.34
2019-06-08T07:20:04.045Z,52.54
2019-06-08T07:21:04.018Z,52.76
2019-06-08T07:22:04.007Z,53.37
2019-06-08T07:23:03.989Z,53.78
2019-06-08T07:24:03.979Z,53.78
2019-06-08T07:25:03.969Z,53.78
2019-06-08T07:26:03.970Z,53.47
2019-06-08T07:27:07.246Z,54.89
2019-06-08T07:28:03.933Z,53.98
2019-06-08T07:29:03.926Z,53.58
2019-06-08T07:30:03.946Z,54.08
2019-06-08T07:31:03.914Z,54.59
2019-06-08T07:32:03.894Z,54.59
2019-06-08T07:33:03.879Z,54.59
2019-06-08T07:34:03.869Z,54.69
2019-06-08T07:35:03.853Z,53.98
2019-06-08T07:36:03.874Z,54.49
2019-06-08T07:37:03.839Z,53.47
2019-06-08T07:38:03.831Z,53.78
2019-06-08T07:39:03.813Z,54.69
2019-06-08T07:40:03.798Z,54.79
2019-06-08T07:41:03.788Z,53.88
2019-06-08T07:42:03.797Z,54.18
2019-06-08T07:43:03.782Z,53.58
2019-06-08T07:44:03.755Z,53.78
2019-06-08T07:45:03.763Z,54.18
2019-06-08T07:46:03.753Z,54.86
2019-06-08T07:47:03.722Z,54.16
2019-06-08T07:48:03.712Z,53.75
2019-06-08T07:49:03.701Z,54.23
2019-06-08T07:50:04.797Z,54.76
2019-06-08T07:51:03.705Z,53.72
2019-06-08T07:52:10.146Z,53.32
2019-06-08T07:53:04.675Z,53.02
2019-06-08T07:54:03.648Z,54.00
2019-06-08T07:55:03.632Z,53.50
2019-06-08T07:56:03.623Z,53.60
2019-06-08T07:57:03.624Z,54.31
2019-06-08T07:58:03.660Z,53.09
2019-06-08T07:59:03.602Z,52.69
2019-06-08T08:00:09.179Z,54.11
2019-06-08T08:01:08.136Z,53.60
2019-06-08T08:02:03.568Z,52.99
2019-06-08T08:03:03.544Z,52.89
2019-06-08T08:04:03.548Z,53.40
2019-06-08T08:05:03.523Z,54.41
2019-06-08T08:06:03.523Z,54.41
2019-06-08T08:07:03.548Z,53.78
2019-06-08T08:08:03.510Z,53.67
2019-06-08T08:09:03.507Z,53.34
2019-06-08T08:10:03.535Z,52.64
2019-06-08T08:11:03.459Z,52.94
2019-06-08T08:12:03.445Z,54.33
2019-06-08T08:13:03.476Z,52.41
2019-06-08T08:14:03.613Z,52.11
2019-06-08T08:15:03.415Z,52.11
2019-06-08T08:16:03.426Z,52.49
2019-06-08T08:17:03.399Z,52.39
2019-06-08T08:18:03.401Z,51.00
2019-06-08T08:19:03.382Z,51.91
2019-06-08T08:20:03.374Z,52.61
2019-06-08T08:21:12.006Z,51.71
2019-06-08T08:22:19.684Z,52.64
2019-06-08T08:23:06.922Z,52.61
2019-06-08T08:24:03.354Z,51.50
2019-06-08T08:25:05.055Z,52.54
2019-06-08T08:26:03.292Z,52.23
2019-06-08T08:27:03.934Z,52.26
2019-06-08T08:28:03.275Z,52.76
2019-06-08T08:29:03.659Z,52.64
2019-06-08T08:30:03.249Z,53.45
2019-06-08T08:31:03.263Z,52.74
2019-06-08T08:32:03.228Z,52.23
2019-06-08T08:33:03.571Z,52.44
2019-06-08T08:34:05.569Z,52.64
2019-06-08T08:35:03.256Z,51.93
2019-06-08T08:36:03.186Z,53.47
2019-06-08T08:37:06.140Z,53.17
2019-06-08T08:38:04.750Z,53.38
2019-06-08T08:39:03.169Z,53.07
2019-06-08T08:40:03.136Z,53.78
2019-06-08T08:41:07.127Z,52.76
2019-06-08T08:42:05.331Z,52.39
2019-06-08T08:43:03.104Z,53.90
2019-06-08T08:44:04.855Z,53.50
2019-06-08T08:45:05.359Z,53.83
2019-06-08T08:46:04.070Z,54.00
2019-06-08T08:47:03.062Z,53.80
2019-06-08T08:48:20.026Z,53.63
2019-06-08T08:49:09.641Z,54.00
2019-06-08T08:50:04.034Z,53.38
2019-06-08T08:51:03.643Z,52.97
2019-06-08T08:52:03.008Z,52.87
2019-06-08T08:53:02.992Z,52.67
2019-06-08T08:54:05.252Z,52.87
2019-06-08T08:55:02.996Z,52.26
2019-06-08T08:56:02.968Z,53.07
2019-06-08T08:57:05.073Z,52.46
2019-06-08T08:58:02.940Z,53.17
2019-06-08T08:59:02.981Z,52.46
2019-06-08T09:00:04.963Z,53.07
2019-06-08T09:01:03.762Z,52.56
2019-06-08T09:02:03.154Z,51.93
2019-06-08T09:03:24.346Z,52.64
2019-06-08T09:04:05.269Z,52.14
2019-06-08T09:05:03.739Z,52.94
2019-06-08T09:06:03.966Z,52.14
2019-06-08T09:07:06.904Z,52.94
2019-06-08T09:08:04.224Z,52.44
2019-06-08T09:09:03.665Z,52.14
2019-06-08T09:10:03.768Z,53.05
2019-06-08T09:11:03.771Z,51.81
2019-06-08T09:12:04.291Z,51.61
2019-06-08T09:13:04.634Z,51.40
2019-06-08T09:14:07.083Z,51.28
2019-06-08T09:15:04.092Z,51.28
2019-06-08T09:16:04.238Z,52.06
2019-06-08T09:17:03.564Z,53.17
2019-06-08T09:18:03.900Z,50.55
2019-06-08T09:19:04.410Z,51.05
2019-06-08T09:20:03.836Z,51.35
2019-06-08T09:21:03.939Z,50.95
2019-06-08T09:22:03.893Z,51.56
2019-06-08T09:23:10.560Z,51.76
2019-06-08T09:24:04.205Z,51.86
2019-06-08T09:25:04.450Z,51.07
2019-06-08T09:26:09.061Z,51.28
2019-06-08T09:27:04.323Z,51.20
2019-06-08T09:28:04.750Z,51.81
2019-06-08T09:29:05.020Z,51.50
2019-06-08T09:30:04.771Z,51.71
2019-06-08T09:31:04.077Z,52.01
2019-06-08T09:32:03.690Z,52.72
2019-06-08T09:33:04.198Z,50.98
2019-06-08T09:34:10.563Z,51.89
2019-06-08T09:35:04.823Z,51.58
2019-06-08T09:36:04.802Z,51.07
2019-06-08T09:37:03.472Z,51.38
2019-06-08T09:38:04.802Z,51.15
2019-06-08T09:39:04.426Z,51.13
2019-06-08T09:40:03.756Z,50.45
2019-06-08T09:41:04.920Z,50.45
2019-06-08T09:42:03.564Z,51.35
2019-06-08T09:43:08.784Z,50.62
2019-06-08T09:44:05.639Z,51.73
2019-06-08T09:45:05.375Z,50.02
2019-06-08T09:46:05.289Z,49.79
2019-06-08T09:47:07.033Z,50.02
2019-06-08T09:48:05.543Z,49.92
2019-06-08T09:49:07.675Z,50.42
2019-06-08T09:50:05.351Z,50.02
2019-06-08T09:51:04.425Z,49.82
2019-06-08T09:52:04.081Z,50.52
2019-06-08T09:53:14.877Z,50.73
2019-06-08T09:54:06.030Z,50.55
2019-06-08T09:55:05.798Z,50.15
2019-06-08T09:56:05.374Z,49.94
2019-06-08T09:57:03.952Z,49.96
2019-06-08T09:58:07.751Z,50.57
2019-06-08T09:59:06.071Z,51.28
2019-06-08T10:00:14.328Z,51.48
2019-06-08T10:01:05.913Z,50.98
2019-06-08T10:02:06.441Z,50.87
2019-06-08T10:03:06.152Z,50.67
2019-06-08T10:04:04.025Z,50.27
2019-06-08T10:05:04.055Z,50.75
2019-06-08T10:06:06.831Z,51.15
2019-06-08T10:07:04.280Z,51.05
2019-06-08T10:08:04.033Z,51.35
2019-06-08T10:09:02.764Z,51.76
2019-06-08T10:10:04.103Z,50.75
2019-06-08T10:11:04.372Z,51.25
2019-06-08T10:12:04.577Z,50.82
2019-06-08T10:13:06.183Z,50.55
2019-06-08T10:14:05.444Z,50.75
2019-06-08T10:15:04.643Z,50.35
2019-06-08T10:16:05.314Z,50.04
2019-06-08T10:17:03.605Z,49.62
2019-06-08T10:18:03.294Z,49.52
2019-06-08T10:19:04.826Z,49.31
2019-06-08T10:20:03.314Z,49.94
2019-06-08T10:21:03.447Z,50.02
2019-06-08T10:22:03.007Z,49.54
2019-06-08T10:23:05.102Z,49.74
2019-06-08T10:24:04.701Z,49.72
2019-06-08T10:25:05.386Z,49.01
2019-06-08T10:26:04.641Z,48.73
2019-06-08T10:27:03.419Z,48.22
2019-06-08T10:28:07.789Z,49.24
2019-06-08T10:29:05.183Z,47.72
2019-06-08T10:30:04.263Z,49.13
2019-06-08T10:31:03.680Z,49.74
2019-06-08T10:32:01.905Z,49.94
2019-06-08T10:33:04.758Z,50.55
2019-06-08T10:34:03.532Z,50.15
2019-06-08T10:35:03.724Z,50.67
2019-06-08T10:36:03.777Z,51.05
2019-06-08T10:37:04.938Z,51.05
2019-06-08T10:38:06.955Z,50.95
2019-06-08T10:39:06.390Z,50.85
2019-06-08T10:40:05.436Z,51.35
2019-06-08T10:41:09.127Z,49.64
2019-06-08T10:42:03.578Z,49.56
2019-06-08T10:43:03.394Z,50.07
2019-06-08T10:44:03.382Z,49.16
2019-06-08T10:45:05.198Z,49.76
2019-06-08T10:46:08.573Z,49.96
2019-06-08T10:47:04.058Z,49.87
2019-06-08T10:48:03.224Z,50.57
2019-06-08T10:49:01.998Z,51.28
2019-06-08T10:50:07.005Z,50.57
2019-06-08T10:51:05.263Z,49.96
2019-06-08T10:52:03.671Z,49.64
2019-06-08T10:53:04.087Z,49.84
2019-06-08T10:54:02.227Z,50.04
2019-06-08T10:55:04.673Z,50.15
2019-06-08T10:56:03.018Z,51.05
2019-06-08T10:57:04.126Z,50.04
2019-06-08T10:58:02.370Z,50.15
2019-06-08T10:59:03.882Z,50.04
2019-06-08T11:00:11.477Z,49.64
2019-06-08T11:01:05.602Z,49.64
2019-06-08T11:02:04.964Z,49.94
2019-06-08T11:03:05.097Z,49.33
2019-06-08T11:04:03.016Z,49.82
2019-06-08T11:05:04.699Z,50.02
2019-06-08T11:06:03.266Z,49.62
2019-06-08T11:07:07.203Z,50.60
2019-06-08T11:08:02.989Z,49.79
2019-06-08T11:09:05.185Z,49.37
2019-06-08T11:10:03.780Z,49.27
2019-06-08T11:11:02.679Z,49.67
2019-06-08T11:12:02.025Z,48.96
2019-06-08T11:13:05.202Z,49.55
2019-06-08T11:14:03.853Z,47.63
2019-06-08T11:15:03.145Z,48.54
2019-06-08T11:16:03.715Z,48.54
2019-06-08T11:17:02.618Z,48.61
2019-06-08T11:18:04.747Z,47.53
2019-06-08T11:19:03.055Z,47.66
2019-06-08T11:20:03.049Z,47.75
2019-06-08T11:21:02.403Z,47.83
2019-06-08T11:22:04.730Z,47.83
2019-06-08T11:23:03.570Z,48.34
2019-06-08T11:24:14.386Z,49.44
2019-06-08T11:25:03.766Z,48.94
2019-06-08T11:26:05.419Z,49.65
2019-06-08T11:27:03.515Z,48.14
2019-06-08T11:28:01.808Z,48.94
2019-06-08T11:29:02.869Z,47.83
2019-06-08T11:30:09.369Z,48.74
2019-06-08T11:31:03.836Z,49.44
2019-06-08T11:32:02.050Z,49.77
2019-06-08T11:33:02.095Z,47.96
2019-06-08T11:34:03.611Z,48.46
2019-06-08T11:35:02.060Z,48.06
2019-06-08T11:36:04.149Z,47.86
2019-06-08T11:37:03.304Z,48.96
2019-06-08T11:38:02.234Z,48.28
2019-06-08T11:39:02.454Z,48.46
2019-06-08T11:40:02.132Z,49.57
2019-06-08T11:41:04.268Z,49.29
2019-06-08T11:42:02.300Z,49.69
2019-06-08T11:43:02.263Z,49.87
2019-06-08T11:44:02.151Z,49.97
2019-06-08T11:45:02.284Z,49.87
2019-06-08T11:46:02.513Z,50.17
2019-06-08T11:47:02.399Z,49.87
2019-06-08T11:48:02.627Z,49.07
2019-06-08T11:49:04.244Z,50.98
2019-06-08T11:50:02.794Z,51.68
2019-06-08T11:51:02.501Z,49.24
2019-06-08T11:52:02.492Z,49.87
2019-06-08T11:53:02.330Z,49.97
2019-06-08T11:54:01.207Z,50.07
2019-06-08T11:55:02.571Z,49.55
2019-06-08T11:56:01.225Z,49.24
2019-06-08T11:57:00.976Z,49.75
2019-06-08T11:58:00.963Z,49.75
2019-06-08T11:59:01.114Z,49.24
2019-06-08T12:00:05.291Z,49.67
2019-06-08T12:01:03.763Z,49.27
2019-06-08T12:02:01.863Z,49.77
2019-06-08T12:03:02.229Z,49.87
2019-06-08T12:04:01.566Z,49.67
2019-06-08T12:05:01.746Z,50.07
2019-06-08T12:06:02.178Z,49.87
2019-06-08T12:07:02.075Z,50.48
2019-06-08T12:08:02.736Z,49.67
2019-06-08T12:09:00.833Z,50.05
2019-06-08T12:10:00.835Z,49.24
2019-06-08T12:11:02.183Z,49.67
2019-06-08T12:12:00.803Z,48.86
2019-06-08T12:13:00.788Z,49.37
2019-06-08T12:14:00.782Z,49.85
2019-06-08T12:15:00.777Z,49.95
2019-06-08T12:16:00.771Z,48.64
2019-06-08T12:17:01.381Z,49.27
2019-06-08T12:18:00.737Z,47.66
2019-06-08T12:19:00.721Z,49.49
2019-06-08T12:20:00.718Z,49.99
2019-06-08T12:21:01.462Z,49.59
2019-06-08T12:22:00.699Z,50.40
2019-06-08T12:23:00.674Z,50.40
2019-06-08T12:24:00.693Z,49.67
2019-06-08T12:25:00.653Z,50.50
2019-06-08T12:26:00.645Z,50.50
2019-06-08T12:27:10.495Z,50.57
2019-06-08T12:28:01.621Z,51.20
2019-06-08T12:29:01.354Z,50.40
2019-06-08T12:30:08.057Z,51.00
2019-06-08T12:31:01.589Z,50.88
2019-06-08T12:32:00.611Z,50.50
2019-06-08T12:33:00.565Z,49.77
2019-06-08T12:34:00.564Z,50.27
2019-06-08T12:35:00.546Z,49.87
2019-06-08T12:36:00.538Z,50.88
2019-06-08T12:37:00.546Z,49.27
2019-06-08T12:38:00.510Z,49.37
2019-06-08T12:39:00.503Z,49.67
2019-06-08T12:40:01.297Z,49.77
2019-06-08T12:41:00.478Z,49.37
2019-06-08T12:42:00.485Z,49.47
2019-06-08T12:43:00.461Z,49.77
2019-06-08T12:44:00.460Z,49.27
2019-06-08T12:45:00.434Z,49.27
2019-06-08T12:46:00.423Z,49.95
2019-06-08T12:47:00.448Z,49.24
2019-06-08T12:48:00.418Z,48.64
2019-06-08T12:49:00.392Z,48.64
2019-06-08T12:50:00.378Z,48.46
2019-06-08T12:51:00.374Z,47.75
2019-06-08T12:52:00.360Z,48.34